Time;durP1;ratioP1;P1;durP2;ratioP2;P2;SDS_P1;SDS_P2;PMS_P1;PMS_P2;Temp;Humidity;BMP_temperature;BMP_pressure;BME280_temperature;BME280_humidity;BME280_pressure;Samples;Min_cycle;Max_cycle;Signal;HPM_P1;HPM_P2
2021/06/15 00:00:22;;;;;;;8.23;4.42;;;;;;;17.33;81.46;99450.81;1712642;83;20112;-72
2021/06/15 00:02:48;;;;;;;6.00;4.12;;;;;;;17.25;81.39;99455.77;1712426;82;21042;-72
2021/06/15 00:05:15;;;;;;;4.05;3.58;;;;;;;17.26;81.04;99449.92;1722553;83;21023;-72
2021/06/15 00:07:42;;;;;;;6.50;3.98;;;;;;;17.29;80.65;99451.22;1706141;83;21608;-71
2021/06/15 00:10:16;;;;;;;5.08;3.70;;;;;;;17.30;80.14;99448.72;1716605;83;20998;-72
2021/06/15 00:12:42;;;;;;;8.08;4.08;;;;;;;17.29;79.87;99453.41;1720332;83;21504;-72
2021/06/15 00:15:09;;;;;;;;;;;;;;;17.29;79.69;99448.46;1706777;82;21015;-72
2021/06/15 00:17:36;;;;;;;7.40;4.00;;;;;;;17.29;79.43;99452.03;1702050;82;20126;-72
2021/06/15 00:20:04;;;;;;;4.92;3.85;;;;;;;17.21;79.47;99448.73;1728123;83;21412;-72
2021/06/15 00:22:31;;;;;;;4.87;3.90;;;;;;;17.20;79.36;99448.47;1716322;82;21015;-72
2021/06/15 00:24:58;;;;;;;5.22;4.20;;;;;;;17.20;79.22;99444.34;1721286;82;21121;-72
2021/06/15 00:27:24;;;;;;;;;;;;;;;17.15;79.20;99438.99;1718834;83;21489;-72
2021/06/15 00:29:51;;;;;;;5.25;4.00;;;;;;;17.12;79.18;99442.39;1726766;83;20138;-72
2021/06/15 00:32:18;;;;;;;5.80;3.65;;;;;;;17.08;79.18;99435.91;1720214;82;21513;-73
2021/06/15 00:34:45;;;;;;;4.97;3.72;;;;;;;17.06;79.11;99436.00;1721787;83;21096;-73
2021/06/15 00:37:12;;;;;;;4.83;3.85;;;;;;;17.03;79.07;99438.02;1682110;85;21011;-73
2021/06/15 00:39:38;;;;;;;5.47;4.08;;;;;;;16.92;79.09;99429.27;1703900;83;21523;-73
2021/06/15 00:42:06;;;;;;;6.58;4.15;;;;;;;16.97;79.22;99441.47;1717521;83;21055;-72
2021/06/15 00:44:36;;;;;;;5.08;4.15;;;;;;;16.95;79.34;99436.87;1697493;83;21102;-72
2021/06/15 00:47:04;;;;;;;5.22;3.90;;;;;;;16.93;79.44;99430.89;1710848;83;21608;-73
2021/06/15 00:49:35;;;;;;;5.05;4.03;;;;;;;16.93;79.43;99434.20;1702409;82;21458;-73
2021/06/15 00:52:03;;;;;;;5.92;4.03;;;;;;;16.95;79.42;99431.93;1689943;83;21546;-73
2021/06/15 00:54:30;;;;;;;6.58;3.95;;;;;;;16.96;79.32;99441.25;1701700;83;21612;-73
2021/06/15 00:56:57;;;;;;;6.60;4.00;;;;;;;16.95;79.22;99440.99;1706885;83;21043;-73
2021/06/15 00:59:23;;;;;;;5.58;3.75;;;;;;;16.95;79.19;99440.17;1695829;83;21563;-73
2021/06/15 01:01:51;;;;;;;6.28;3.92;;;;;;;16.91;79.20;99435.33;1706319;83;21015;-73
2021/06/15 01:04:17;;;;;;;6.00;3.90;;;;;;;16.90;79.19;99438.38;1729636;81;21050;-73
2021/06/15 01:07:05;;;;;;;6.33;3.98;;;;;;;16.89;79.24;99429.35;1709755;83;21541;-73
2021/06/15 01:09:56;;;;;;;5.70;3.77;;;;;;;16.89;79.16;99435.41;1661409;83;21090;-73
2021/06/15 01:12:50;;;;;;;7.40;3.90;;;;;;;16.85;79.15;99432.49;1662323;83;21078;-73
2021/06/15 01:15:29;;;;;;;7.00;4.28;;;;;;;16.82;79.29;99435.88;1713580;83;21039;-73
2021/06/15 01:18:04;;;;;;;7.83;4.50;;;;;;;16.78;79.49;99432.71;1714964;82;21530;-73
2021/06/15 01:20:40;;;;;;;7.53;4.87;;;;;;;16.76;79.63;99434.95;1707367;83;21535;-73
2021/06/15 01:23:31;;;;;;;6.62;4.40;;;;;;;16.68;79.80;99437.14;1709081;82;21023;-73
2021/06/15 01:26:22;;;;;;;5.55;4.42;;;;;;;16.64;79.96;99433.40;1700312;83;20977;-73
2021/06/15 01:28:52;;;;;;;6.00;4.25;;;;;;;16.64;79.95;99437.52;1702461;83;21569;-74
2021/06/15 01:31:37;;;;;;;4.53;4.03;;;;;;;16.60;79.97;99436.53;1701735;83;21011;-74
2021/06/15 01:34:22;;;;;;;6.10;4.10;;;;;;;16.57;80.02;99437.17;1702612;82;21071;-74
2021/06/15 01:37:01;;;;;;;5.55;4.30;;;;;;;16.54;80.11;99437.78;1708349;83;21005;-73
2021/06/15 01:39:31;;;;;;;5.67;4.22;;;;;;;16.50;80.12;99423.88;1710590;83;21075;-73
2021/06/15 01:42:12;;;;;;;5.65;4.08;;;;;;;16.47;80.11;99424.52;1716198;83;21476;-74
2021/06/15 01:44:39;;;;;;;5.40;4.10;;;;;;;16.43;80.14;99418.84;1712968;82;21099;-73
2021/06/15 01:47:11;;;;;;;4.87;4.08;;;;;;;16.41;80.21;99426.58;1714149;83;21023;-74
2021/06/15 01:49:46;;;;;;;4.30;3.90;;;;;;;16.43;80.30;99428.46;1707836;83;21057;-74
2021/06/15 01:52:13;;;;;;;7.55;4.28;;;;;;;16.44;80.32;99438.30;1703336;83;21039;-74
2021/06/15 01:54:41;;;;;;;7.70;4.42;;;;;;;16.44;80.29;99430.06;1690244;82;21071;-73
2021/06/15 01:57:11;;;;;;;5.60;4.47;;;;;;;16.38;80.34;99432.71;1658926;83;21019;-74
2021/06/15 01:59:41;;;;;;;5.05;4.28;;;;;;;16.35;80.32;99428.41;1698531;83;21067;-74
2021/06/15 02:02:07;;;;;;;5.08;4.10;;;;;;;16.38;80.27;99420.91;1695312;82;20956;-74
2021/06/15 02:04:36;;;;;;;5.42;4.42;;;;;;;16.40;80.28;99429.07;1688833;83;21067;-74
2021/06/15 02:07:03;;;;;;;6.70;4.12;;;;;;;16.43;80.30;99429.84;1702352;83;20932;-74
2021/06/15 02:09:31;;;;;;;5.50;3.80;;;;;;;16.46;80.31;99417.95;1708052;82;21548;-74
2021/06/15 02:12:00;;;;;;;6.75;4.00;;;;;;;16.48;80.21;99427.48;1718192;82;21010;-74
2021/06/15 02:14:44;;;;;;;6.08;4.35;;;;;;;16.48;80.12;99427.48;1719018;83;21075;-73
2021/06/15 02:17:31;;;;;;;6.58;4.08;;;;;;;16.44;80.35;99429.24;1708337;83;21448;-74
2021/06/15 02:20:07;;;;;;;6.37;4.08;;;;;;;16.44;80.35;99443.80;1716744;83;21011;-74
2021/06/15 02:22:34;;;;;;;6.37;4.10;;;;;;;16.48;80.22;99440.41;1710937;83;20983;-74
2021/06/15 02:25:03;;;;;;;4.25;3.70;;;;;;;16.44;80.19;99445.73;1697155;83;21060;-73
2021/06/15 02:27:32;;;;;;;5.10;4.30;;;;;;;16.39;80.39;99446.70;1696218;82;20996;-73
2021/06/15 02:29:58;;;;;;;4.33;3.92;;;;;;;16.32;80.71;99447.72;1704945;83;21080;-74
2021/06/15 02:32:34;;;;;;;5.45;3.85;;;;;;;16.32;80.80;99447.72;1681107;83;20954;-74
2021/06/15 02:35:06;;;;;;;7.28;4.58;;;;;;;16.34;80.91;99454.25;1723329;81;21083;-73
2021/06/15 02:37:38;;;;;;;6.97;4.47;;;;;;;16.36;81.09;99454.77;1719824;83;20959;-73
2021/06/15 02:40:06;;;;;;;7.75;4.35;;;;;;;16.37;81.19;99453.06;1713596;82;21553;-75
2021/06/15 02:42:39;;;;;;;8.28;4.35;;;;;;;16.41;81.17;99449.11;1729916;82;21007;-73
2021/06/15 02:45:06;;;;;;;6.85;4.70;;;;;;;16.47;81.02;99453.92;1724933;81;22636;-75
2021/06/15 02:47:34;;;;;;;5.25;3.62;;;;;;;16.49;81.12;99458.52;1711872;82;20946;-73
2021/06/15 02:50:00;;;;;;;5.90;3.90;;;;;;;16.54;81.10;99461.14;1703512;82;21694;-73
2021/06/15 02:52:45;;;;;;;;;;;;;;;16.59;80.86;99456.89;1719299;82;20999;-74
2021/06/15 02:55:22;;;;;;;4.87;3.50;;;;;;;16.64;80.79;99456.76;1730762;83;20107;-74
2021/06/15 02:57:49;;;;;;;5.72;3.92;;;;;;;16.62;80.91;99452.13;1720542;82;21066;-74
2021/06/15 03:00:19;;;;;;;5.00;3.80;;;;;;;16.69;80.88;99454.66;1708085;82;21064;-73
2021/06/15 03:02:45;;;;;;;5.20;4.20;;;;;;;16.73;80.78;99452.09;1725711;82;20991;-73
2021/06/15 03:05:20;;;;;;;6.05;4.03;;;;;;;16.86;80.61;99455.30;1723062;82;21030;-73
2021/06/15 03:07:49;;;;;;;7.03;4.25;;;;;;;16.97;80.46;99451.69;1716524;82;21027;-73
2021/06/15 03:10:16;;;;;;;5.37;3.65;;;;;;;17.13;80.45;99452.27;1709753;83;21545;-73
2021/06/15 03:12:49;;;;;;;4.03;3.45;;;;;;;17.37;79.98;99459.48;1710036;82;21002;-72
2021/06/15 03:15:20;;;;;;;5.45;4.35;;;;;;;17.66;79.36;99459.43;1690041;84;21047;-73
2021/06/15 03:18:06;;;;;;;5.28;4.15;;;;;;;17.95;78.72;99451.30;1701090;83;20968;-72
2021/06/15 03:20:33;;;;;;;5.28;3.98;;;;;;;18.25;77.68;99450.80;1700443;84;21063;-72
2021/06/15 03:23:17;;;;;;;6.03;4.20;;;;;;;18.51;76.42;99449.37;1705424;82;21035;-73
2021/06/15 03:25:43;;;;;;;4.67;3.92;;;;;;;18.72;75.40;99451.63;1723936;82;21039;-72
2021/06/15 03:28:16;;;;;;;4.58;3.80;;;;;;;19.03;74.49;99454.03;1729844;82;21081;-73
2021/06/15 03:30:43;;;;;;;8.43;4.35;;;;;;;19.30;73.12;99452.97;1737248;82;21042;-72
2021/06/15 03:33:16;;;;;;;4.90;4.33;;;;;;;19.49;71.76;99458.59;1696186;82;21987;-72
2021/06/15 03:35:45;;;;;;;5.65;4.10;;;;;;;19.64;70.97;99454.66;1728810;82;21558;-72
2021/06/15 03:38:12;;;;;;;4.83;3.87;;;;;;;19.84;70.59;99466.81;1713770;83;21117;-73
2021/06/15 03:40:41;;;;;;;5.97;3.92;;;;;;;20.00;69.51;99467.00;1703622;83;21057;-73
2021/06/15 03:43:08;;;;;;;4.78;3.87;;;;;;;20.07;68.94;99465.30;1713678;82;21035;-73
2021/06/15 03:45:39;;;;;;;7.50;4.28;;;;;;;20.20;68.90;99473.04;1717845;83;21014;-73
2021/06/15 03:48:06;;;;;;;4.95;4.45;;;;;;;20.45;68.69;99462.87;1735795;81;21659;-73
2021/06/15 03:50:36;;;;;;;5.35;3.87;;;;;;;20.68;67.98;99470.41;1718768;82;21018;-73
2021/06/15 03:53:05;;;;;;;7.00;4.55;;;;;;;20.84;66.75;99467.16;1718411;81;21675;-73
2021/06/15 03:55:32;;;;;;;5.40;4.22;;;;;;;20.85;66.45;99473.51;1709685;82;21041;-72
2021/06/15 03:58:00;;;;;;;5.95;4.10;;;;;;;20.87;66.12;99472.58;1716192;81;21153;-72
2021/06/15 04:00:28;;;;;;;7.40;4.37;;;;;;;20.87;66.65;99479.48;1703892;82;22499;-72
2021/06/15 04:02:56;;;;;;;6.62;4.70;;;;;;;21.06;66.36;99477.53;1729094;83;21015;-72
2021/06/15 04:05:28;;;;;;;6.85;5.00;;;;;;;21.21;66.34;99477.67;1718616;82;21042;-73
2021/06/15 04:07:59;;;;;;;6.75;4.92;;;;;;;21.38;65.60;99467.47;1709554;82;20995;-73
2021/06/15 04:10:27;;;;;;;6.92;4.50;;;;;;;21.37;65.21;99470.01;1714464;83;21505;-73
2021/06/15 04:12:55;;;;;;;5.62;4.97;;;;;;;21.41;65.75;99469.55;1701154;83;21065;-72
2021/06/15 04:15:25;;;;;;;5.85;4.75;;;;;;;21.44;65.17;99471.03;1707771;83;21030;-75
2021/06/15 04:17:51;;;;;;;6.83;5.10;;;;;;;21.49;65.08;99474.14;1707250;83;21046;-74
2021/06/15 04:20:30;;;;;;;5.20;4.70;;;;;;;21.47;64.70;99473.70;1727678;83;21027;-73
2021/06/15 04:22:59;;;;;;;6.67;5.03;;;;;;;21.57;64.81;99468.48;1710101;83;21062;-73
2021/06/15 04:25:31;;;;;;;4.97;4.40;;;;;;;21.56;64.58;99473.78;1689281;83;21091;-73
2021/06/15 04:28:00;;;;;;;6.67;5.42;;;;;;;21.62;65.51;99477.91;1694808;84;21053;-75
2021/06/15 04:30:29;;;;;;;6.78;4.92;;;;;;;21.80;64.98;99475.66;1692418;84;21062;-73
2021/06/15 04:32:58;;;;;;;5.67;5.05;;;;;;;21.96;65.01;99473.78;1692738;84;21022;-73
2021/06/15 04:35:32;;;;;;;6.42;5.50;;;;;;;22.20;64.42;99477.81;1688829;84;21069;-70
2021/06/15 04:38:02;;;;;;;8.60;5.65;;;;;;;22.35;63.37;99479.00;1725385;82;20976;-70
2021/06/15 04:40:33;;;;;;;6.92;5.70;;;;;;;22.41;63.47;99479.53;1725758;83;21047;-72
2021/06/15 04:43:37;;;;;;;7.97;5.50;;;;;;;22.58;63.05;99473.64;1725825;82;21082;-72
2021/06/15 04:46:25;;;;;;;5.95;5.08;;;;;;;22.65;62.72;99476.02;1705195;82;21098;-72
2021/06/15 04:49:03;;;;;;;7.83;5.45;;;;;;;22.68;62.42;99480.06;1694723;84;21094;-72
2021/06/15 04:51:31;;;;;;;7.35;5.70;;;;;;;22.68;62.68;99480.06;1725241;83;21620;-72
2021/06/15 04:54:00;;;;;;;7.00;6.00;;;;;;;22.74;62.92;99478.66;1725647;82;21090;-72
2021/06/15 04:56:29;;;;;;;7.80;6.05;;;;;;;22.90;62.83;99478.62;1672697;83;21042;-73
2021/06/15 04:59:01;;;;;;;7.97;5.47;;;;;;;22.93;62.03;99481.48;1710340;83;21018;-73
2021/06/15 05:01:27;;;;;;;8.95;6.62;;;;;;;23.00;61.91;99473.33;1725550;83;21003;-73
2021/06/15 05:03:54;;;;;;;7.53;5.90;;;;;;;22.91;61.89;99474.69;1725462;82;21130;-74
2021/06/15 05:06:21;;;;;;;6.65;4.95;;;;;;;22.88;62.23;99479.58;1723520;83;21015;-75
2021/06/15 05:08:54;;;;;;;6.85;6.00;;;;;;;23.07;62.67;99476.27;1719527;82;21545;-73
2021/06/15 05:11:21;;;;;;;7.50;6.00;;;;;;;23.25;61.44;99477.49;1703775;82;21006;-75
2021/06/15 05:13:48;;;;;;;9.48;6.03;;;;;;;23.38;61.71;99465.69;1725428;83;21046;-74
2021/06/15 05:16:14;;;;;;;7.58;5.92;;;;;;;23.50;61.07;99472.52;1725153;82;21006;-73
2021/06/15 05:18:41;;;;;;;7.33;5.90;;;;;;;23.63;61.02;99473.98;1725626;83;21620;-74
2021/06/15 05:21:12;;;;;;;6.65;5.30;;;;;;;23.71;60.59;99470.78;1725756;83;21039;-73
2021/06/15 05:23:42;;;;;;;5.28;4.75;;;;;;;23.72;60.59;99469.61;1725628;83;21051;-73
2021/06/15 05:26:09;;;;;;;7.95;5.92;;;;;;;23.76;61.24;99469.11;1712645;83;21030;-73
2021/06/15 05:28:35;;;;;;;8.38;5.50;;;;;;;23.84;60.61;99470.87;1725729;83;21035;-72
2021/06/15 05:31:02;;;;;;;6.83;5.37;;;;;;;23.96;60.63;99469.89;1725528;83;21114;-73
2021/06/15 05:33:29;;;;;;;8.53;5.10;;;;;;;24.11;59.93;99469.00;1679074;82;21097;-73
2021/06/15 05:35:56;;;;;;;6.35;4.95;;;;;;;24.25;60.35;99476.26;1693420;84;21075;-73
2021/06/15 05:38:23;;;;;;;8.53;4.80;;;;;;;24.37;58.83;99469.73;1687699;85;21629;-74
2021/06/15 05:40:49;;;;;;;5.35;4.78;;;;;;;24.37;58.83;99469.73;1687861;85;21679;-73
2021/06/15 05:43:16;;;;;;;7.15;4.80;;;;;;;24.55;58.87;99480.59;1687747;84;21091;-73
2021/06/15 05:45:43;;;;;;;7.08;4.53;;;;;;;24.66;58.24;99480.16;1688317;83;21067;-73
2021/06/15 05:48:10;;;;;;;5.60;4.40;;;;;;;24.74;57.72;99481.89;1708098;83;21023;-73
2021/06/15 05:50:38;;;;;;;5.08;4.22;;;;;;;24.93;57.16;99476.30;1717950;83;21497;-74
2021/06/15 05:53:04;;;;;;;4.90;4.40;;;;;;;24.93;57.16;99476.30;1710533;82;21048;-74
2021/06/15 05:55:31;;;;;;;6.67;4.50;;;;;;;25.04;57.41;99482.84;1677929;85;21110;-73
2021/06/15 05:57:57;;;;;;;7.08;4.78;;;;;;;25.19;57.09;99482.44;1687975;84;21043;-73
2021/06/15 06:00:23;;;;;;;6.15;4.33;;;;;;;25.39;57.35;99489.52;1687836;85;21439;-73
2021/06/15 06:02:51;;;;;;;5.58;4.75;;;;;;;25.66;55.86;99483.34;1687980;83;21602;-70
2021/06/15 06:10:29;;;;;;;6.47;4.50;;;;;;;25.94;55.19;99477.31;1687878;84;21083;-73
2021/06/15 06:12:57;;;;;;;5.45;4.28;;;;;;;25.95;53.83;99476.14;1688551;83;21012;-73
2021/06/15 06:15:25;;;;;;;5.20;4.70;;;;;;;25.91;54.76;99469.71;1687596;84;21633;-72
2021/06/15 06:17:53;;;;;;;6.15;4.50;;;;;;;26.01;54.70;99471.81;1677831;85;21071;-73
2021/06/15 06:20:20;;;;;;;6.40;4.12;;;;;;;26.23;54.07;99470.91;1687830;85;20992;-73
2021/06/15 06:22:46;;;;;;;7.22;4.92;;;;;;;26.40;53.12;99466.09;1693652;83;21031;-73
2021/06/15 06:25:14;;;;;;;9.13;4.42;;;;;;;26.46;52.87;99463.19;1717787;83;21055;-72
2021/06/15 06:27:40;;;;;;;5.20;4.28;;;;;;;26.51;53.27;99467.01;1717904;83;21062;-73
2021/06/15 06:30:09;;;;;;;5.30;4.25;;;;;;;26.56;52.75;99470.86;1712573;83;21043;-73
2021/06/15 06:32:36;;;;;;;10.63;4.85;;;;;;;26.50;52.29;99464.00;1707868;83;21025;-75
2021/06/15 06:35:04;;;;;;;4.75;4.15;;;;;;;26.53;52.13;99468.03;1717651;83;21078;-72
2021/06/15 06:37:33;;;;;;;7.75;4.50;;;;;;;26.64;51.49;99467.54;1727651;82;21047;-74
2021/06/15 06:40:00;;;;;;;5.53;3.75;;;;;;;26.71;51.21;99466.98;1729987;82;21098;-76
2021/06/15 06:42:26;;;;;;;6.15;3.80;;;;;;;26.94;50.70;99466.81;1725857;82;21026;-74
2021/06/15 06:44:53;;;;;;;6.58;3.80;;;;;;;27.28;50.07;99462.47;1715736;82;21066;-72
2021/06/15 06:47:20;;;;;;;4.85;2.92;;;;;;;27.41;48.57;99469.32;1721703;82;21493;-74
2021/06/15 06:49:47;;;;;;;4.92;3.10;;;;;;;27.31;47.95;99456.89;1722029;82;20999;-74
2021/06/15 06:52:15;;;;;;;4.60;3.17;;;;;;;27.26;47.41;99459.23;1727234;83;21034;-74
2021/06/15 06:54:42;;;;;;;3.98;3.58;;;;;;;27.36;48.35;99459.89;1727992;82;21056;-74
2021/06/15 06:57:09;;;;;;;5.00;3.98;;;;;;;27.47;48.02;99457.41;1730651;83;21111;-75
2021/06/15 06:59:36;;;;;;;6.25;3.87;;;;;;;27.52;49.28;99465.43;1730957;81;21652;-77
2021/06/15 07:02:02;;;;;;;6.37;4.72;;;;;;;27.74;48.44;99461.34;1706570;82;21421;-82
2021/06/15 07:04:30;;;;;;;5.58;4.25;;;;;;;27.84;47.74;99459.17;1700187;84;21625;-73
2021/06/15 07:06:59;;;;;;;5.22;4.00;;;;;;;27.80;48.90;99460.56;1686444;84;21584;-72
2021/06/15 07:09:26;;;;;;;4.60;3.55;;;;;;;27.83;47.18;99452.78;1703206;82;21086;-72
2021/06/15 07:11:52;;;;;;;7.37;3.33;;;;;;;27.86;47.66;99449.78;1723601;82;21006;-73
2021/06/15 07:14:19;;;;;;;6.03;3.47;;;;;;;27.98;47.73;99457.23;1725645;81;21115;-73
2021/06/15 07:16:47;;;;;;;5.62;3.25;;;;;;;28.03;46.44;99456.84;1730629;82;21041;-74
2021/06/15 07:19:13;;;;;;;5.60;3.85;;;;;;;27.93;46.55;99454.81;1723006;81;21034;-73
2021/06/15 07:21:40;;;;;;;4.83;3.47;;;;;;;27.92;47.73;99451.80;1719067;82;21035;-72
2021/06/15 07:24:07;;;;;;;5.72;3.80;;;;;;;27.94;46.57;99445.82;1727874;83;21023;-74
2021/06/15 07:26:33;;;;;;;4.83;3.35;;;;;;;27.98;45.85;99442.44;1731059;82;21114;-74
2021/06/15 07:29:01;;;;;;;6.00;3.52;;;;;;;28.01;46.10;99448.05;1712161;83;21522;-74
2021/06/15 07:31:29;;;;;;;6.25;4.30;;;;;;;28.03;45.97;99449.84;1704527;83;20980;-73
2021/06/15 07:33:56;;;;;;;5.78;3.80;;;;;;;27.86;45.84;99448.38;1738052;81;21019;-73
2021/06/15 07:36:25;;;;;;;7.20;4.40;;;;;;;27.79;46.46;99446.36;1730850;82;21533;-73
2021/06/15 07:38:52;;;;;;;6.70;4.45;;;;;;;27.83;47.06;99442.98;1709860;83;21130;-75
2021/06/15 07:41:19;;;;;;;5.30;4.60;;;;;;;27.86;47.84;99439.40;1728221;82;21011;-74
2021/06/15 07:43:45;;;;;;;4.60;4.00;;;;;;;27.93;47.79;99438.02;1732613;81;21112;-72
2021/06/15 07:46:15;;;;;;;4.75;3.83;;;;;;;28.06;47.25;99437.85;1709899;83;21070;-73
2021/06/15 07:48:41;;;;;;;4.87;4.10;;;;;;;28.18;47.22;99436.13;1723686;83;21082;-73
2021/06/15 07:51:07;;;;;;;8.55;3.90;;;;;;;28.30;46.91;99437.75;1730812;83;21074;-73
2021/06/15 07:53:34;;;;;;;5.45;3.83;;;;;;;28.39;46.97;99431.75;1730957;83;21110;-72
2021/06/15 07:56:01;;;;;;;3.55;3.25;;;;;;;28.49;46.64;99437.95;1731074;82;21022;-72
2021/06/15 07:58:27;;;;;;;6.30;3.70;;;;;;;28.59;46.52;99434.39;1722910;82;21109;-73
2021/06/15 08:00:54;;;;;;;6.28;3.30;;;;;;;28.66;46.28;99426.77;1707720;83;20979;-76
2021/06/15 08:03:20;;;;;;;6.00;3.87;;;;;;;28.71;44.92;99429.80;1706454;83;21137;-72
2021/06/15 08:05:47;;;;;;;7.78;3.87;;;;;;;28.71;45.61;99432.60;1695824;84;21031;-72
2021/06/15 08:08:13;;;;;;;5.47;3.42;;;;;;;28.65;44.74;99427.18;1743276;81;21014;-74
2021/06/15 08:10:40;;;;;;;5.85;4.05;;;;;;;28.71;45.99;99420.59;1718456;82;21034;-73
2021/06/15 08:13:07;;;;;;;4.05;2.87;;;;;;;28.76;45.94;99423.81;1743555;81;21521;-75
2021/06/15 08:15:35;;;;;;;6.12;3.25;;;;;;;28.74;46.07;99421.99;1733977;82;20992;-74
2021/06/15 08:18:01;;;;;;;5.15;3.87;;;;;;;28.75;45.30;99423.60;1714963;82;21592;-74
2021/06/15 08:20:28;;;;;;;4.55;2.50;;;;;;;28.89;45.92;99417.19;1712547;83;21034;-74
2021/06/15 08:22:54;;;;;;;2.58;2.10;;;;;;;28.84;44.49;99414.17;1719710;82;21103;-72
2021/06/15 08:25:21;;;;;;;4.17;3.12;;;;;;;28.80;43.46;99408.41;1727722;83;21054;-72
2021/06/15 08:27:47;;;;;;;8.28;2.42;;;;;;;28.77;44.89;99400.18;1700210;84;21598;-72
2021/06/15 08:30:15;;;;;;;4.25;2.92;;;;;;;28.80;44.06;99405.00;1700085;84;21014;-73
2021/06/15 08:32:42;;;;;;;3.37;2.20;;;;;;;28.85;43.71;99398.98;1700183;84;21070;-72
2021/06/15 08:35:10;;;;;;;4.78;2.10;;;;;;;28.77;42.65;99398.78;1700361;84;21458;-72
2021/06/15 08:37:38;;;;;;;2.42;1.90;;;;;;;28.69;42.99;99395.80;1693690;83;21055;-73
2021/06/15 08:40:06;;;;;;;2.60;1.98;;;;;;;28.66;43.28;99393.78;1687946;85;21040;-73
2021/06/15 08:42:33;;;;;;;2.67;2.10;;;;;;;28.69;43.21;99398.61;1687947;84;21059;-72
2021/06/15 08:44:59;;;;;;;3.83;2.10;;;;;;;28.72;42.02;99393.60;1701018;83;21079;-73
2021/06/15 08:47:27;;;;;;;3.65;2.15;;;;;;;28.71;41.92;99396.19;1717833;83;21075;-72
2021/06/15 08:49:53;;;;;;;2.72;1.90;;;;;;;28.53;41.33;99393.37;1717823;83;21040;-73
2021/06/15 08:52:26;;;;;;;2.37;1.98;;;;;;;28.42;41.88;99395.95;1718037;83;21086;-73
2021/06/15 08:54:48;;;;;;;2.98;2.08;;;;;;;28.42;42.07;99389.77;1712609;83;21107;-73
2021/06/15 08:57:17;;;;;;;2.27;2.02;;;;;;;28.49;41.71;99386.16;1687778;85;21106;-73
2021/06/15 08:59:44;;;;;;;4.87;2.37;;;;;;;28.47;41.10;99390.78;1718294;82;21075;-72
2021/06/15 09:02:10;;;;;;;3.62;2.17;;;;;;;28.39;41.64;99383.56;1718120;82;21027;-73
2021/06/15 09:04:37;;;;;;;4.87;2.50;;;;;;;28.49;41.53;99386.16;1718206;82;21091;-72
2021/06/15 09:07:04;;;;;;;2.95;2.17;;;;;;;28.51;41.15;99385.98;1718078;83;21027;-72
2021/06/15 09:09:48;;;;;;;6.12;2.55;;;;;;;28.43;42.92;99371.77;1718034;82;21632;-72
2021/06/15 09:12:20;;;;;;;2.92;2.20;;;;;;;28.66;43.47;99381.18;1718094;82;21035;-72
2021/06/15 09:14:55;;;;;;;3.60;2.42;;;;;;;28.90;41.70;99379.57;1711364;83;21492;-73
2021/06/15 09:17:34;;;;;;;2.60;2.25;;;;;;;29.05;40.65;99374.14;1732860;83;21516;-73
2021/06/15 09:20:21;;;;;;;2.95;2.25;;;;;;;29.11;40.09;99373.92;1732789;81;21086;-73
2021/06/15 09:23:04;;;;;;;2.42;2.00;;;;;;;29.04;41.10;99379.55;1729771;83;21079;-72
2021/06/15 09:25:31;;;;;;;3.33;2.30;;;;;;;29.10;42.54;99372.31;1717977;83;21047;-73
2021/06/15 09:27:59;;;;;;;4.05;2.40;;;;;;;29.27;40.04;99369.28;1717749;83;21043;-71
2021/06/15 09:30:28;;;;;;;3.80;2.37;;;;;;;29.28;41.25;99373.09;1718038;83;21485;-72
2021/06/15 09:32:56;;;;;;;4.87;2.15;;;;;;;29.30;40.34;99376.91;1718338;83;21576;-72
2021/06/15 09:35:28;;;;;;;3.52;2.35;;;;;;;29.01;39.96;99379.75;1732903;83;20987;-73
2021/06/15 09:37:56;;;;;;;3.60;2.55;;;;;;;28.61;41.17;99377.37;1732485;81;21051;-73
2021/06/15 09:40:31;;;;;;;3.37;2.08;;;;;;;28.40;41.37;99370.38;1732969;83;21043;-73
2021/06/15 09:43:10;;;;;;;3.92;1.77;;;;;;;28.42;40.80;99365.16;1706622;83;21055;-73
2021/06/15 09:45:46;;;;;;;3.85;2.47;;;;;;;28.49;41.14;99362.36;1687229;84;21052;-72
2021/06/15 09:48:29;;;;;;;4.22;2.65;;;;;;;28.53;40.81;99368.17;1687696;84;21534;-72
2021/06/15 09:51:16;;;;;;;2.95;2.22;;;;;;;28.49;42.14;99359.56;1688076;84;20976;-73
2021/06/15 09:53:48;;;;;;;2.67;2.05;;;;;;;28.58;41.89;99355.78;1688240;83;21019;-72
2021/06/15 09:56:15;;;;;;;4.05;2.20;;;;;;;28.79;40.54;99359.98;1656390;83;21007;-72
2021/06/15 09:58:52;;;;;;;3.05;2.00;;;;;;;28.90;40.22;99350.95;1687763;85;21067;-72
2021/06/15 10:01:33;;;;;;;3.58;1.77;;;;;;;29.04;39.80;99350.92;1685766;83;21135;-72
2021/06/15 10:04:21;;;;;;;5.25;2.10;;;;;;;29.12;38.99;99355.91;1718031;82;21114;-72
2021/06/15 10:06:53;;;;;;;2.55;1.65;;;;;;;29.02;39.48;99349.70;1717994;83;21067;-72
2021/06/15 10:09:29;;;;;;;3.90;2.00;;;;;;;29.14;39.98;99359.09;1717787;82;21165;-74
2021/06/15 10:12:07;;;;;;;3.92;2.25;;;;;;;29.22;39.77;99352.27;1718248;82;21000;-72
2021/06/15 10:14:39;;;;;;;3.55;1.75;;;;;;;29.37;40.08;99355.22;1717862;83;21553;-72
2021/06/15 10:17:06;;;;;;;3.60;2.10;;;;;;;29.53;40.30;99348.56;1718116;83;21055;-72
2021/06/15 10:19:33;;;;;;;3.15;2.15;;;;;;;29.77;41.05;99338.41;1716401;83;21063;-71
2021/06/15 10:21:59;;;;;;;2.58;2.05;;;;;;;30.04;39.37;99335.87;1687830;84;21032;-72
2021/06/15 10:24:26;;;;;;;4.15;2.20;;;;;;;30.06;37.94;99345.47;1687900;85;21063;-72
2021/06/15 10:26:53;;;;;;;3.15;1.98;;;;;;;29.80;38.47;99335.38;1687832;84;21027;-72
2021/06/15 10:29:20;;;;;;;4.85;2.20;;;;;;;29.48;38.58;99339.75;1687832;85;21114;-73
2021/06/15 10:31:48;;;;;;;2.92;1.70;;;;;;;29.22;37.81;99343.05;1712750;83;21636;-73
2021/06/15 10:34:14;;;;;;;3.47;1.82;;;;;;;29.25;40.07;99327.63;1717930;83;21016;-73
2021/06/15 10:36:47;;;;;;;3.58;1.80;;;;;;;29.49;39.41;99328.74;1718212;83;20988;-73
2021/06/15 10:39:37;;;;;;;3.83;2.20;;;;;;;29.70;40.13;99327.83;1725700;83;21050;-73
2021/06/15 10:42:14;;;;;;;3.62;2.08;;;;;;;29.85;38.34;99331.58;1723897;82;20944;-72
2021/06/15 10:44:43;;;;;;;4.72;2.20;;;;;;;29.81;37.50;99337.78;1708281;83;21612;-71
2021/06/15 10:47:16;;;;;;;2.95;2.10;;;;;;;29.71;38.38;99329.43;1695076;84;21439;-72
2021/06/15 10:50:00;;;;;;;3.15;2.20;;;;;;;29.74;38.44;99338.42;1669926;83;21624;-73
2021/06/15 10:52:47;;;;;;;3.55;2.12;;;;;;;29.60;37.93;99330.30;1690429;85;21074;-72
2021/06/15 10:55:46;;;;;;;3.00;1.82;;;;;;;29.50;39.10;99326.14;1690858;85;21018;-72
2021/06/15 10:58:13;;;;;;;2.80;1.80;;;;;;;29.64;38.15;99324.06;1690638;85;21106;-70
2021/06/15 11:00:52;;;;;;;2.70;1.80;;;;;;;29.80;38.34;99328.36;1676430;83;21059;-74
2021/06/15 11:03:23;;;;;;;3.72;1.80;;;;;;;29.96;38.62;99321.09;1695213;84;21481;-73
2021/06/15 11:05:58;;;;;;;3.35;1.90;;;;;;;30.07;38.30;99315.39;1695256;85;21003;-72
2021/06/15 11:08:27;;;;;;;4.67;2.20;;;;;;;30.11;38.32;99321.78;1702246;82;21031;-72
2021/06/15 11:11:00;;;;;;;5.15;2.40;;;;;;;30.08;39.59;99319.17;1725708;82;20999;-72
2021/06/15 11:13:53;;;;;;;2.52;1.90;;;;;;;29.88;40.00;99311.71;1725555;82;21680;-72
2021/06/15 11:16:43;;;;;;;4.10;2.02;;;;;;;29.77;38.91;99315.96;1725261;83;21039;-72
2021/06/15 11:19:20;;;;;;;2.50;2.00;;;;;;;29.57;39.26;99312.89;1729107;82;21094;-73
2021/06/15 11:22:04;;;;;;;3.25;2.00;;;;;;;29.35;39.93;99306.38;1737726;82;20967;-72
2021/06/15 11:24:47;;;;;;;3.80;2.20;;;;;;;29.22;39.18;99287.80;1738140;81;21525;-72
2021/06/15 11:27:19;;;;;;;2.72;2.00;;;;;;;29.08;40.20;99271.85;1710115;82;21003;-73
2021/06/15 11:29:47;;;;;;;5.67;4.25;;;;;;;29.21;40.44;99274.18;1725609;82;21094;-73
2021/06/15 11:32:29;;;;;;;4.22;2.40;;;;;;;29.46;40.79;99274.89;1725737;83;21556;-73
2021/06/15 11:35:05;;;;;;;5.60;2.70;;;;;;;29.65;39.49;99273.75;1725521;83;21146;-72
2021/06/15 11:37:40;;;;;;;5.37;2.40;;;;;;;29.77;39.65;99267.47;1725673;82;21106;-72
2021/06/15 11:40:17;;;;;;;4.17;2.87;;;;;;;29.75;40.05;99255.27;1731035;83;21053;-73
2021/06/15 11:43:12;;;;;;;4.50;2.37;;;;;;;29.89;40.84;99257.20;1726073;83;21552;-74
2021/06/15 11:45:43;;;;;;;3.22;1.98;;;;;;;29.92;40.09;99248.76;1647153;84;21065;-72
2021/06/15 11:48:35;;;;;;;2.67;2.05;;;;;;;29.84;38.54;99259.00;1700847;83;21102;-73
2021/06/15 11:52:54;;;;;;;;;;;;;;;29.84;39.61;99243.57;1802725;79;23356;-72
2021/06/15 11:55:33;;;;;;;4.55;2.30;;;;;;;29.75;39.00;99241.25;1753255;82;20529;-72
2021/06/15 11:58:04;;;;;;;2.20;2.00;;;;;;;29.58;38.83;99236.56;1736006;82;21141;-72